createdAt,value
2023-01-28T00:09:37.009Z,24.31
2023-01-28T00:19:38.731Z,24.28
2023-01-28T00:29:40.314Z,24.26
2023-01-28T00:39:41.915Z,24.23
2023-01-28T00:49:43.526Z,24.22
2023-01-28T00:59:45.225Z,24.21
2023-01-28T01:09:46.843Z,24.19
2023-01-28T01:19:48.405Z,24.19
2023-01-28T01:29:50.065Z,24.16
2023-01-28T01:39:51.645Z,24.18
2023-01-28T01:49:53.549Z,24.17
2023-01-28T01:59:55.284Z,24.17
2023-01-28T02:09:56.896Z,24.18
2023-01-28T02:20:07.265Z,24.17
2023-01-28T02:30:37.000Z,24.16
2023-01-28T02:40:59.764Z,24.14
2023-01-28T02:51:05.583Z,24.15
2023-01-28T03:01:28.580Z,24.13
2023-01-28T03:11:50.015Z,24.15
2023-01-28T03:22:10.432Z,24.13
2023-01-28T03:32:30.922Z,24.15
2023-01-28T03:42:33.087Z,24.16
2023-01-28T03:53:13.531Z,24.15
2023-01-28T04:03:24.802Z,24.12
2023-01-28T04:13:30.632Z,24.12
2023-01-28T04:23:32.433Z,24.12
2023-01-28T04:33:34.510Z,24.11
2023-01-28T04:43:46.717Z,24.12
2023-01-28T04:54:06.927Z,24.12
2023-01-28T05:04:10.507Z,24.14
2023-01-28T05:14:13.932Z,24.14
2023-01-28T05:34:23.469Z,24.03
2023-01-28T05:44:25.990Z,23.98
2023-01-28T05:54:34.045Z,23.95
2023-01-28T06:04:36.065Z,23.93
2023-01-28T06:14:37.967Z,23.90
2023-01-28T06:24:43.566Z,23.88
2023-01-28T06:34:45.294Z,23.86
2023-01-28T06:44:46.969Z,23.83
2023-01-28T06:54:48.593Z,23.80
2023-01-28T07:04:50.190Z,23.79
2023-01-28T07:14:53.064Z,23.76
2023-01-28T07:24:55.015Z,23.73
2023-01-28T07:34:56.662Z,23.71
2023-01-28T07:44:58.386Z,23.80
2023-01-28T07:55:00.263Z,23.88
2023-01-28T08:05:02.179Z,23.85
2023-01-28T08:15:05.948Z,23.87
2023-01-28T08:25:08.146Z,23.92
2023-01-28T08:35:10.035Z,23.94
2023-01-28T08:45:13.017Z,23.97
2023-01-28T08:55:14.701Z,24.00
2023-01-28T09:05:16.444Z,24.03
2023-01-28T09:15:18.038Z,24.05
2023-01-28T09:25:19.762Z,24.04
2023-01-28T09:35:21.491Z,24.12
2023-01-28T09:45:35.360Z,24.14
2023-01-28T09:55:41.892Z,24.15
2023-01-28T10:05:48.169Z,24.15
2023-01-28T10:16:01.962Z,24.15
2023-01-28T10:26:05.127Z,24.18
2023-01-28T10:36:07.653Z,24.20
2023-01-28T10:46:28.874Z,24.20
2023-01-28T10:56:31.984Z,24.20
2023-01-28T11:06:33.713Z,24.20
2023-01-28T11:16:35.353Z,24.20
2023-01-28T11:26:38.261Z,24.22
2023-01-28T11:36:39.836Z,24.23
2023-01-28T11:46:53.237Z,24.23
2023-01-28T11:57:03.829Z,24.24
2023-01-28T12:07:17.684Z,24.24
2023-01-28T12:17:51.444Z,24.23
2023-01-28T12:28:14.792Z,24.24
2023-01-28T12:38:28.968Z,24.24
2023-01-28T12:48:34.868Z,24.23
2023-01-28T12:58:42.838Z,24.22
2023-01-28T13:08:44.517Z,24.22
2023-01-28T13:18:46.318Z,24.23
2023-01-28T13:28:48.796Z,24.25
2023-01-28T13:39:19.842Z,24.26
2023-01-28T13:49:26.241Z,24.27
2023-01-28T13:59:55.104Z,24.27
2023-01-28T14:10:08.756Z,24.28
2023-01-28T14:20:18.364Z,24.27
2023-01-28T14:30:28.743Z,24.24
2023-01-28T14:40:30.478Z,24.24
2023-01-28T14:50:57.118Z,24.23
2023-01-28T15:00:59.899Z,24.23
2023-01-28T15:11:01.575Z,24.23
2023-01-28T15:21:03.451Z,24.24
2023-01-28T15:31:05.416Z,24.25
2023-01-28T15:41:07.119Z,24.28
2023-01-28T15:51:15.477Z,24.30
2023-01-28T16:01:18.888Z,24.31
2023-01-28T16:11:22.128Z,24.33
2023-01-28T16:21:24.642Z,24.32
2023-01-28T16:31:26.551Z,24.34
2023-01-28T16:41:28.936Z,24.34
2023-01-28T16:51:30.534Z,24.37
2023-01-28T17:01:32.140Z,24.39
2023-01-28T17:11:34.181Z,24.38
2023-01-28T17:21:35.799Z,24.48
2023-01-28T17:31:37.520Z,24.45
2023-01-28T17:41:39.985Z,24.45
2023-01-28T17:51:41.675Z,24.44
2023-01-28T18:01:43.793Z,24.45
2023-01-28T18:11:45.415Z,24.45
2023-01-28T18:21:53.106Z,24.47
2023-01-28T18:31:55.449Z,24.49
2023-01-28T18:41:57.882Z,24.50
2023-01-28T18:51:59.704Z,24.50
2023-01-28T19:02:01.325Z,24.48
2023-01-28T19:12:02.986Z,24.48
2023-01-28T19:22:04.627Z,24.47
2023-01-28T19:32:06.476Z,24.48
2023-01-28T19:42:08.187Z,24.47
2023-01-28T19:52:10.839Z,24.47
2023-01-28T20:02:12.478Z,24.47
2023-01-28T20:12:14.929Z,24.48
2023-01-28T20:22:16.739Z,24.47
2023-01-28T20:32:20.613Z,24.47
2023-01-28T20:42:22.392Z,24.48
2023-01-28T20:52:24.156Z,24.49
2023-01-28T21:02:26.195Z,24.48
2023-01-28T21:12:30.086Z,24.49
2023-01-28T21:22:31.742Z,24.48
2023-01-28T21:32:33.414Z,24.49
2023-01-28T21:42:35.326Z,24.48
2023-01-28T21:52:36.956Z,24.46
2023-01-28T22:02:39.024Z,24.48
2023-01-28T22:12:40.675Z,24.50
2023-01-28T22:22:42.286Z,24.51
2023-01-28T22:32:44.048Z,24.50
2023-01-28T22:42:45.638Z,24.53
2023-01-28T22:52:47.530Z,24.53
2023-01-28T23:02:49.243Z,24.54
2023-01-28T23:12:53.730Z,24.52
2023-01-28T23:23:13.893Z,24.47
2023-01-28T23:33:15.796Z,24.45
2023-01-28T23:43:25.143Z,24.45
2023-01-28T23:53:27.218Z,24.45
